sensor_id;sensor_type;location;lat;lon;timestamp;temperature;humidity
24436;DHT22;12616;52.470;13.436;2022-09-09T00:00:18;15.20;99.90
24436;DHT22;12616;52.470;13.436;2022-09-09T00:02:52;15.30;99.90
24436;DHT22;12616;52.470;13.436;2022-09-09T00:05:26;15.30;99.90
24436;DHT22;12616;52.470;13.436;2022-09-09T00:07:59;15.30;99.90
24436;DHT22;12616;52.470;13.436;2022-09-09T00:10:31;15.30;99.90
24436;DHT22;12616;52.470;13.436;2022-09-09T00:13:05;15.30;99.90
24436;DHT22;12616;52.470;13.436;2022-09-09T00:15:37;15.30;99.90
24436;DHT22;12616;52.470;13.436;2022-09-09T00:18:14;15.10;99.90
24436;DHT22;12616;52.470;13.436;2022-09-09T00:20:49;15.20;99.90
24436;DHT22;12616;52.470;13.436;2022-09-09T00:23:25;15.30;99.90
24436;DHT22;12616;52.470;13.436;2022-09-09T00:26:01;15.20;99.90
24436;DHT22;12616;52.470;13.436;2022-09-09T00:28:29;15.20;99.90
24436;DHT22;12616;52.470;13.436;2022-09-09T00:31:00;15.20;99.90
24436;DHT22;12616;52.470;13.436;2022-09-09T00:33:30;15.10;99.90
24436;DHT22;12616;52.470;13.436;2022-09-09T00:35:58;15.10;99.90
24436;DHT22;12616;52.470;13.436;2022-09-09T00:38:31;15.00;99.90
24436;DHT22;12616;52.470;13.436;2022-09-09T00:41:03;15.00;99.90
24436;DHT22;12616;52.470;13.436;2022-09-09T00:43:35;15.10;99.90
24436;DHT22;12616;52.470;13.436;2022-09-09T00:46:21;15.10;99.90
24436;DHT22;12616;52.470;13.436;2022-09-09T00:49:00;15.00;99.90
24436;DHT22;12616;52.470;13.436;2022-09-09T00:51:38;15.00;99.90
24436;DHT22;12616;52.470;13.436;2022-09-09T00:54:24;15.00;99.90
24436;DHT22;12616;52.470;13.436;2022-09-09T00:57:06;15.00;99.90
24436;DHT22;12616;52.470;13.436;2022-09-09T00:59:46;15.00;99.90
24436;DHT22;12616;52.470;13.436;2022-09-09T01:02:18;15.00;99.90
24436;DHT22;12616;52.470;13.436;2022-09-09T01:04:48;15.00;99.90
24436;DHT22;12616;52.470;13.436;2022-09-09T01:07:16;15.00;99.90
24436;DHT22;12616;52.470;13.436;2022-09-09T01:09:52;14.90;99.90
24436;DHT22;12616;52.470;13.436;2022-09-09T01:12:27;14.90;99.90
24436;DHT22;12616;52.470;13.436;2022-09-09T01:15:03;14.90;99.90
24436;DHT22;12616;52.470;13.436;2022-09-09T01:17:35;14.90;99.90
24436;DHT22;12616;52.470;13.436;2022-09-09T01:20:08;14.80;99.90
24436;DHT22;12616;52.470;13.436;2022-09-09T01:22:43;14.80;99.90
24436;DHT22;12616;52.470;13.436;2022-09-09T01:28:22;14.70;99.90
24436;DHT22;12616;52.470;13.436;2022-09-09T01:30:51;14.70;99.90
24436;DHT22;12616;52.470;13.436;2022-09-09T01:33:19;14.70;99.90
24436;DHT22;12616;52.470;13.436;2022-09-09T01:35:49;14.70;99.90
24436;DHT22;12616;52.470;13.436;2022-09-09T01:38:20;14.70;99.90
24436;DHT22;12616;52.470;13.436;2022-09-09T01:40:47;14.70;99.90
24436;DHT22;12616;52.470;13.436;2022-09-09T01:43:15;14.70;99.90
24436;DHT22;12616;52.470;13.436;2022-09-09T01:45:44;14.70;99.90
24436;DHT22;12616;52.470;13.436;2022-09-09T01:48:12;14.60;99.90
24436;DHT22;12616;52.470;13.436;2022-09-09T01:50:39;14.70;99.90
24436;DHT22;12616;52.470;13.436;2022-09-09T01:53:06;14.60;99.90
24436;DHT22;12616;52.470;13.436;2022-09-09T01:55:38;14.60;99.90
24436;DHT22;12616;52.470;13.436;2022-09-09T01:58:16;14.60;99.90
24436;DHT22;12616;52.470;13.436;2022-09-09T02:00:52;14.60;99.90
24436;DHT22;12616;52.470;13.436;2022-09-09T02:03:22;14.60;99.90
24436;DHT22;12616;52.470;13.436;2022-09-09T02:05:58;14.60;99.90
24436;DHT22;12616;52.470;13.436;2022-09-09T02:08:31;14.60;99.90
24436;DHT22;12616;52.470;13.436;2022-09-09T02:11:06;14.60;99.90
24436;DHT22;12616;52.470;13.436;2022-09-09T02:13:37;14.60;99.90
24436;DHT22;12616;52.470;13.436;2022-09-09T02:16:08;14.60;99.90
24436;DHT22;12616;52.470;13.436;2022-09-09T02:18:43;14.60;99.90
24436;DHT22;12616;52.470;13.436;2022-09-09T02:21:11;14.60;99.90
24436;DHT22;12616;52.470;13.436;2022-09-09T02:23:41;14.50;99.90
24436;DHT22;12616;52.470;13.436;2022-09-09T02:26:10;14.40;99.90
24436;DHT22;12616;52.470;13.436;2022-09-09T02:28:40;14.40;99.90
24436;DHT22;12616;52.470;13.436;2022-09-09T02:31:08;14.40;99.90
24436;DHT22;12616;52.470;13.436;2022-09-09T02:33:40;14.40;99.90
24436;DHT22;12616;52.470;13.436;2022-09-09T02:36:09;14.40;99.90
24436;DHT22;12616;52.470;13.436;2022-09-09T02:38:40;14.40;99.90
24436;DHT22;12616;52.470;13.436;2022-09-09T02:41:09;14.40;99.90
24436;DHT22;12616;52.470;13.436;2022-09-09T02:43:36;14.40;99.90
24436;DHT22;12616;52.470;13.436;2022-09-09T02:48:59;14.40;99.90
24436;DHT22;12616;52.470;13.436;2022-09-09T02:51:34;14.40;99.90
24436;DHT22;12616;52.470;13.436;2022-09-09T02:54:10;14.40;99.90
24436;DHT22;12616;52.470;13.436;2022-09-09T02:56:41;14.40;99.90
24436;DHT22;12616;52.470;13.436;2022-09-09T02:59:08;14.30;99.90
24436;DHT22;12616;52.470;13.436;2022-09-09T03:01:35;14.30;99.90
24436;DHT22;12616;52.470;13.436;2022-09-09T03:04:03;14.30;99.90
24436;DHT22;12616;52.470;13.436;2022-09-09T03:06:30;14.30;99.90
24436;DHT22;12616;52.470;13.436;2022-09-09T03:08:57;14.20;99.90
24436;DHT22;12616;52.470;13.436;2022-09-09T03:11:26;14.20;99.90
24436;DHT22;12616;52.470;13.436;2022-09-09T03:13:53;14.10;99.90
24436;DHT22;12616;52.470;13.436;2022-09-09T03:16:21;14.20;99.90
24436;DHT22;12616;52.470;13.436;2022-09-09T03:18:48;14.20;99.90
24436;DHT22;12616;52.470;13.436;2022-09-09T03:21:16;14.20;99.90
24436;DHT22;12616;52.470;13.436;2022-09-09T03:23:43;14.20;99.90
24436;DHT22;12616;52.470;13.436;2022-09-09T03:26:11;14.20;99.90
24436;DHT22;12616;52.470;13.436;2022-09-09T03:28:40;14.20;99.90
24436;DHT22;12616;52.470;13.436;2022-09-09T03:31:07;14.20;99.90
24436;DHT22;12616;52.470;13.436;2022-09-09T03:33:35;14.20;99.90
24436;DHT22;12616;52.470;13.436;2022-09-09T03:36:04;14.10;99.90
24436;DHT22;12616;52.470;13.436;2022-09-09T03:38:34;14.20;99.90
24436;DHT22;12616;52.470;13.436;2022-09-09T03:41:01;14.10;99.90
24436;DHT22;12616;52.470;13.436;2022-09-09T03:43:28;14.10;99.90
24436;DHT22;12616;52.470;13.436;2022-09-09T03:45:55;14.10;99.90
24436;DHT22;12616;52.470;13.436;2022-09-09T03:48:23;14.10;99.90
24436;DHT22;12616;52.470;13.436;2022-09-09T03:50:51;14.10;99.90
24436;DHT22;12616;52.470;13.436;2022-09-09T03:53:20;14.10;99.90
24436;DHT22;12616;52.470;13.436;2022-09-09T03:55:50;14.00;99.90
24436;DHT22;12616;52.470;13.436;2022-09-09T03:58:20;14.00;99.90
24436;DHT22;12616;52.470;13.436;2022-09-09T04:00:53;14.00;99.90
24436;DHT22;12616;52.470;13.436;2022-09-09T04:03:20;14.00;99.90
24436;DHT22;12616;52.470;13.436;2022-09-09T04:05:48;14.00;99.90
24436;DHT22;12616;52.470;13.436;2022-09-09T04:08:15;14.00;99.90
24436;DHT22;12616;52.470;13.436;2022-09-09T04:10:42;14.10;99.90
24436;DHT22;12616;52.470;13.436;2022-09-09T04:13:13;14.00;99.90
24436;DHT22;12616;52.470;13.436;2022-09-09T04:15:40;14.00;99.90
24436;DHT22;12616;52.470;13.436;2022-09-09T04:18:07;14.00;99.90
24436;DHT22;12616;52.470;13.436;2022-09-09T04:20:34;13.90;99.90
24436;DHT22;12616;52.470;13.436;2022-09-09T04:23:01;13.90;99.90
24436;DHT22;12616;52.470;13.436;2022-09-09T04:25:28;13.90;99.90
24436;DHT22;12616;52.470;13.436;2022-09-09T04:27:55;14.00;99.90
24436;DHT22;12616;52.470;13.436;2022-09-09T04:30:23;14.30;99.90
24436;DHT22;12616;52.470;13.436;2022-09-09T04:32:50;14.00;99.90
24436;DHT22;12616;52.470;13.436;2022-09-09T04:35:17;14.10;99.90
24436;DHT22;12616;52.470;13.436;2022-09-09T04:37:45;14.10;99.90
24436;DHT22;12616;52.470;13.436;2022-09-09T04:40:14;13.60;99.90
24436;DHT22;12616;52.470;13.436;2022-09-09T04:42:40;14.10;99.90
24436;DHT22;12616;52.470;13.436;2022-09-09T04:45:09;14.10;99.90
24436;DHT22;12616;52.470;13.436;2022-09-09T04:47:40;14.10;99.90
24436;DHT22;12616;52.470;13.436;2022-09-09T04:50:07;14.10;99.90
24436;DHT22;12616;52.470;13.436;2022-09-09T04:52:35;14.10;99.90
24436;DHT22;12616;52.470;13.436;2022-09-09T04:55:02;14.10;99.90
24436;DHT22;12616;52.470;13.436;2022-09-09T04:57:29;14.00;99.90
24436;DHT22;12616;52.470;13.436;2022-09-09T04:59:57;14.10;99.90
24436;DHT22;12616;52.470;13.436;2022-09-09T05:02:25;14.00;99.90
24436;DHT22;12616;52.470;13.436;2022-09-09T05:04:53;14.00;99.90
24436;DHT22;12616;52.470;13.436;2022-09-09T05:07:20;14.00;99.90
24436;DHT22;12616;52.470;13.436;2022-09-09T05:09:47;14.10;99.90
24436;DHT22;12616;52.470;13.436;2022-09-09T05:12:15;14.20;99.90
24436;DHT22;12616;52.470;13.436;2022-09-09T05:14:42;14.10;99.90
24436;DHT22;12616;52.470;13.436;2022-09-09T05:17:09;14.20;99.90
24436;DHT22;12616;52.470;13.436;2022-09-09T05:19:36;14.20;99.90
24436;DHT22;12616;52.470;13.436;2022-09-09T05:22:04;14.10;99.90
24436;DHT22;12616;52.470;13.436;2022-09-09T05:24:31;14.20;99.90
24436;DHT22;12616;52.470;13.436;2022-09-09T05:26:58;14.20;99.90
24436;DHT22;12616;52.470;13.436;2022-09-09T05:29:27;14.20;99.90
24436;DHT22;12616;52.470;13.436;2022-09-09T05:31:53;14.30;99.90
24436;DHT22;12616;52.470;13.436;2022-09-09T05:34:20;14.40;99.90
24436;DHT22;12616;52.470;13.436;2022-09-09T05:36:47;14.50;99.90
24436;DHT22;12616;52.470;13.436;2022-09-09T05:39:15;14.50;99.90
24436;DHT22;12616;52.470;13.436;2022-09-09T05:41:42;14.50;99.90
24436;DHT22;12616;52.470;13.436;2022-09-09T05:44:09;14.50;99.90
24436;DHT22;12616;52.470;13.436;2022-09-09T05:46:35;14.50;99.90
24436;DHT22;12616;52.470;13.436;2022-09-09T05:49:03;14.50;99.90
24436;DHT22;12616;52.470;13.436;2022-09-09T05:51:30;14.60;99.90
24436;DHT22;12616;52.470;13.436;2022-09-09T05:53:58;14.60;99.90
24436;DHT22;12616;52.470;13.436;2022-09-09T05:56:27;14.70;99.90
24436;DHT22;12616;52.470;13.436;2022-09-09T05:58:55;14.70;99.90
24436;DHT22;12616;52.470;13.436;2022-09-09T06:01:23;14.70;99.90
24436;DHT22;12616;52.470;13.436;2022-09-09T06:03:51;14.80;99.90
24436;DHT22;12616;52.470;13.436;2022-09-09T06:06:19;14.80;99.90
24436;DHT22;12616;52.470;13.436;2022-09-09T06:08:47;14.60;99.90
24436;DHT22;12616;52.470;13.436;2022-09-09T06:11:17;14.80;99.90
24436;DHT22;12616;52.470;13.436;2022-09-09T06:13:45;14.90;99.90
24436;DHT22;12616;52.470;13.436;2022-09-09T06:16:15;14.90;99.90
24436;DHT22;12616;52.470;13.436;2022-09-09T06:18:42;14.90;99.90
24436;DHT22;12616;52.470;13.436;2022-09-09T06:21:13;15.00;99.90
24436;DHT22;12616;52.470;13.436;2022-09-09T06:23:41;15.00;99.90
24436;DHT22;12616;52.470;13.436;2022-09-09T06:26:11;15.10;99.90
24436;DHT22;12616;52.470;13.436;2022-09-09T06:28:38;15.10;99.90
24436;DHT22;12616;52.470;13.436;2022-09-09T06:31:08;14.90;99.90
24436;DHT22;12616;52.470;13.436;2022-09-09T06:33:36;15.20;99.90
24436;DHT22;12616;52.470;13.436;2022-09-09T06:36:07;15.20;99.90
24436;DHT22;12616;52.470;13.436;2022-09-09T06:38:36;15.30;99.90
24436;DHT22;12616;52.470;13.436;2022-09-09T06:41:04;15.30;99.90
24436;DHT22;12616;52.470;13.436;2022-09-09T06:43:31;15.40;99.90
24436;DHT22;12616;52.470;13.436;2022-09-09T06:45:59;15.50;99.90
24436;DHT22;12616;52.470;13.436;2022-09-09T06:48:28;15.50;99.90
24436;DHT22;12616;52.470;13.436;2022-09-09T06:51:02;15.70;99.90
24436;DHT22;12616;52.470;13.436;2022-09-09T06:53:29;15.80;99.90
24436;DHT22;12616;52.470;13.436;2022-09-09T06:55:56;15.80;99.90
24436;DHT22;12616;52.470;13.436;2022-09-09T06:58:23;16.00;99.90
24436;DHT22;12616;52.470;13.436;2022-09-09T07:00:49;16.00;99.90
24436;DHT22;12616;52.470;13.436;2022-09-09T07:03:16;16.00;99.90
24436;DHT22;12616;52.470;13.436;2022-09-09T07:05:53;16.10;99.90
24436;DHT22;12616;52.470;13.436;2022-09-09T07:08:21;16.10;99.90
24436;DHT22;12616;52.470;13.436;2022-09-09T07:10:48;16.10;99.90
24436;DHT22;12616;52.470;13.436;2022-09-09T07:13:14;16.10;99.90
24436;DHT22;12616;52.470;13.436;2022-09-09T07:15:41;16.20;99.90
24436;DHT22;12616;52.470;13.436;2022-09-09T07:18:08;16.20;99.90
24436;DHT22;12616;52.470;13.436;2022-09-09T07:20:35;16.30;99.90
24436;DHT22;12616;52.470;13.436;2022-09-09T07:23:03;16.40;99.90
24436;DHT22;12616;52.470;13.436;2022-09-09T07:25:30;16.40;99.90
24436;DHT22;12616;52.470;13.436;2022-09-09T07:27:57;16.40;99.90
24436;DHT22;12616;52.470;13.436;2022-09-09T07:30:23;16.50;99.90
24436;DHT22;12616;52.470;13.436;2022-09-09T07:32:51;16.50;99.90
24436;DHT22;12616;52.470;13.436;2022-09-09T07:35:18;16.60;99.90
24436;DHT22;12616;52.470;13.436;2022-09-09T07:37:45;16.60;99.90
24436;DHT22;12616;52.470;13.436;2022-09-09T07:40:14;16.60;99.90
24436;DHT22;12616;52.470;13.436;2022-09-09T07:42:46;16.70;99.90
24436;DHT22;12616;52.470;13.436;2022-09-09T07:45:13;16.80;99.90
24436;DHT22;12616;52.470;13.436;2022-09-09T07:47:39;16.90;99.90
24436;DHT22;12616;52.470;13.436;2022-09-09T07:50:08;16.90;99.90
24436;DHT22;12616;52.470;13.436;2022-09-09T07:52:35;17.10;99.90
24436;DHT22;12616;52.470;13.436;2022-09-09T07:55:02;17.20;99.90
24436;DHT22;12616;52.470;13.436;2022-09-09T07:57:31;17.30;99.90
24436;DHT22;12616;52.470;13.436;2022-09-09T07:59:57;17.30;99.90
24436;DHT22;12616;52.470;13.436;2022-09-09T08:02:25;17.40;99.90
24436;DHT22;12616;52.470;13.436;2022-09-09T08:04:54;17.50;99.90
24436;DHT22;12616;52.470;13.436;2022-09-09T08:07:21;17.60;99.90
24436;DHT22;12616;52.470;13.436;2022-09-09T08:09:48;17.60;99.90
24436;DHT22;12616;52.470;13.436;2022-09-09T08:12:17;17.70;99.90
24436;DHT22;12616;52.470;13.436;2022-09-09T08:14:45;17.70;99.90
24436;DHT22;12616;52.470;13.436;2022-09-09T08:17:11;17.80;99.90
24436;DHT22;12616;52.470;13.436;2022-09-09T08:19:38;17.80;99.90
24436;DHT22;12616;52.470;13.436;2022-09-09T08:22:05;17.70;99.90
24436;DHT22;12616;52.470;13.436;2022-09-09T08:24:31;17.70;99.90
24436;DHT22;12616;52.470;13.436;2022-09-09T08:26:58;17.80;99.90
24436;DHT22;12616;52.470;13.436;2022-09-09T08:29:25;17.80;99.90
24436;DHT22;12616;52.470;13.436;2022-09-09T08:31:56;17.80;99.90
24436;DHT22;12616;52.470;13.436;2022-09-09T08:34:23;17.90;99.90
24436;DHT22;12616;52.470;13.436;2022-09-09T08:36:52;17.90;99.90
24436;DHT22;12616;52.470;13.436;2022-09-09T08:39:20;18.00;99.90
24436;DHT22;12616;52.470;13.436;2022-09-09T08:42:17;18.00;99.90
24436;DHT22;12616;52.470;13.436;2022-09-09T08:45:09;18.00;99.90
24436;DHT22;12616;52.470;13.436;2022-09-09T08:47:48;18.00;99.90
24436;DHT22;12616;52.470;13.436;2022-09-09T08:50:22;17.90;99.90
24436;DHT22;12616;52.470;13.436;2022-09-09T08:52:56;18.00;99.90
24436;DHT22;12616;52.470;13.436;2022-09-09T08:55:32;17.90;99.90
24436;DHT22;12616;52.470;13.436;2022-09-09T08:58:06;18.00;99.90
24436;DHT22;12616;52.470;13.436;2022-09-09T09:00:41;18.30;99.90
24436;DHT22;12616;52.470;13.436;2022-09-09T09:03:18;18.20;99.90
24436;DHT22;12616;52.470;13.436;2022-09-09T09:05:51;18.40;99.90
24436;DHT22;12616;52.470;13.436;2022-09-09T09:08:27;18.50;99.90
24436;DHT22;12616;52.470;13.436;2022-09-09T09:10:57;18.60;99.90
24436;DHT22;12616;52.470;13.436;2022-09-09T09:13:31;18.80;99.90
24436;DHT22;12616;52.470;13.436;2022-09-09T09:18:51;19.10;99.90
24436;DHT22;12616;52.470;13.436;2022-09-09T09:21:21;19.10;99.90
24436;DHT22;12616;52.470;13.436;2022-09-09T09:23:56;19.20;99.90
24436;DHT22;12616;52.470;13.436;2022-09-09T09:26:25;19.30;99.90
24436;DHT22;12616;52.470;13.436;2022-09-09T09:28:56;19.40;99.90
24436;DHT22;12616;52.470;13.436;2022-09-09T09:31:23;19.40;99.90
24436;DHT22;12616;52.470;13.436;2022-09-09T09:33:54;19.40;99.90
24436;DHT22;12616;52.470;13.436;2022-09-09T09:36:24;19.30;99.90
24436;DHT22;12616;52.470;13.436;2022-09-09T09:38:54;19.40;99.90
24436;DHT22;12616;52.470;13.436;2022-09-09T09:41:32;19.30;99.90
24436;DHT22;12616;52.470;13.436;2022-09-09T09:43:59;19.30;99.90
24436;DHT22;12616;52.470;13.436;2022-09-09T09:46:27;19.40;99.90
24436;DHT22;12616;52.470;13.436;2022-09-09T09:48:59;19.30;99.90
24436;DHT22;12616;52.470;13.436;2022-09-09T09:51:26;19.30;99.90
24436;DHT22;12616;52.470;13.436;2022-09-09T09:53:54;19.30;99.90
24436;DHT22;12616;52.470;13.436;2022-09-09T09:56:27;19.30;99.90
24436;DHT22;12616;52.470;13.436;2022-09-09T09:58:55;19.30;99.90
24436;DHT22;12616;52.470;13.436;2022-09-09T10:01:23;19.40;99.90
24436;DHT22;12616;52.470;13.436;2022-09-09T10:03:52;19.50;99.90
24436;DHT22;12616;52.470;13.436;2022-09-09T10:06:30;19.60;99.90
24436;DHT22;12616;52.470;13.436;2022-09-09T10:08:57;19.60;99.90
24436;DHT22;12616;52.470;13.436;2022-09-09T10:11:38;19.60;99.90
24436;DHT22;12616;52.470;13.436;2022-09-09T10:14:17;19.60;99.90
24436;DHT22;12616;52.470;13.436;2022-09-09T10:16:54;19.60;99.90
24436;DHT22;12616;52.470;13.436;2022-09-09T10:19:30;19.70;99.90
24436;DHT22;12616;52.470;13.436;2022-09-09T10:22:08;19.80;99.90
24436;DHT22;12616;52.470;13.436;2022-09-09T10:24:50;19.90;99.90
24436;DHT22;12616;52.470;13.436;2022-09-09T10:27:28;19.80;99.90
24436;DHT22;12616;52.470;13.436;2022-09-09T10:30:09;20.00;99.90
24436;DHT22;12616;52.470;13.436;2022-09-09T10:32:43;20.20;99.90
24436;DHT22;12616;52.470;13.436;2022-09-09T10:35:30;20.20;99.90
24436;DHT22;12616;52.470;13.436;2022-09-09T10:38:16;20.20;99.90
24436;DHT22;12616;52.470;13.436;2022-09-09T10:40:58;20.50;99.90
24436;DHT22;12616;52.470;13.436;2022-09-09T10:43:46;20.30;99.90
24436;DHT22;12616;52.470;13.436;2022-09-09T10:46:25;20.30;99.90
24436;DHT22;12616;52.470;13.436;2022-09-09T10:49:05;20.30;99.90
24436;DHT22;12616;52.470;13.436;2022-09-09T10:51:40;20.40;99.90
24436;DHT22;12616;52.470;13.436;2022-09-09T10:54:23;20.50;99.90
24436;DHT22;12616;52.470;13.436;2022-09-09T10:56:55;20.50;99.90
24436;DHT22;12616;52.470;13.436;2022-09-09T10:59:27;20.60;99.90
24436;DHT22;12616;52.470;13.436;2022-09-09T11:01:58;20.70;99.90
24436;DHT22;12616;52.470;13.436;2022-09-09T11:04:30;20.80;99.90
24436;DHT22;12616;52.470;13.436;2022-09-09T11:07:05;20.80;99.90
24436;DHT22;12616;52.470;13.436;2022-09-09T11:09:38;20.90;76.20
24436;DHT22;12616;52.470;13.436;2022-09-09T11:12:12;21.00;81.10
24436;DHT22;12616;52.470;13.436;2022-09-09T11:14:43;20.90;1.00
24436;DHT22;12616;52.470;13.436;2022-09-09T11:17:15;20.90;99.90
24436;DHT22;12616;52.470;13.436;2022-09-09T11:19:44;21.00;27.40
24436;DHT22;12616;52.470;13.436;2022-09-09T11:22:18;21.10;15.00
24436;DHT22;12616;52.470;13.436;2022-09-09T11:24:50;21.20;1.00
24436;DHT22;12616;52.470;13.436;2022-09-09T11:27:23;21.30;1.00
24436;DHT22;12616;52.470;13.436;2022-09-09T11:30:05;21.40;99.90
24436;DHT22;12616;52.470;13.436;2022-09-09T11:35:37;21.70;1.00
24436;DHT22;12616;52.470;13.436;2022-09-09T11:38:19;21.70;1.00
24436;DHT22;12616;52.470;13.436;2022-09-09T11:40:55;21.90;1.00
24436;DHT22;12616;52.470;13.436;2022-09-09T11:43:25;21.60;1.00
24436;DHT22;12616;52.470;13.436;2022-09-09T11:45:55;21.60;1.00
24436;DHT22;12616;52.470;13.436;2022-09-09T11:48:28;21.70;1.00
24436;DHT22;12616;52.470;13.436;2022-09-09T11:51:02;21.60;58.00
24436;DHT22;12616;52.470;13.436;2022-09-09T11:53:31;21.70;1.00
24436;DHT22;12616;52.470;13.436;2022-09-09T11:56:11;21.70;1.00
24436;DHT22;12616;52.470;13.436;2022-09-09T11:58:43;21.60;1.00
24436;DHT22;12616;52.470;13.436;2022-09-09T12:01:42;21.50;1.00
24436;DHT22;12616;52.470;13.436;2022-09-09T12:07:01;21.20;1.00
24436;DHT22;12616;52.470;13.436;2022-09-09T12:09:43;21.20;1.00
24436;DHT22;12616;52.470;13.436;2022-09-09T12:12:30;21.20;99.90
24436;DHT22;12616;52.470;13.436;2022-09-09T12:15:01;21.30;1.00
24436;DHT22;12616;52.470;13.436;2022-09-09T12:17:29;21.40;1.00
24436;DHT22;12616;52.470;13.436;2022-09-09T12:20:13;21.50;1.00
24436;DHT22;12616;52.470;13.436;2022-09-09T12:25:56;21.60;99.90
24436;DHT22;12616;52.470;13.436;2022-09-09T12:28:31;21.70;99.90
24436;DHT22;12616;52.470;13.436;2022-09-09T12:31:07;21.60;45.60
24436;DHT22;12616;52.470;13.436;2022-09-09T12:33:40;21.60;1.00
24436;DHT22;12616;52.470;13.436;2022-09-09T12:36:12;21.50;1.00
24436;DHT22;12616;52.470;13.436;2022-09-09T12:38:41;21.40;1.00
24436;DHT22;12616;52.470;13.436;2022-09-09T12:41:18;21.50;72.30
24436;DHT22;12616;52.470;13.436;2022-09-09T12:43:47;21.60;1.00
24436;DHT22;12616;52.470;13.436;2022-09-09T12:46:23;21.60;1.00
24436;DHT22;12616;52.470;13.436;2022-09-09T12:48:52;21.60;1.00
24436;DHT22;12616;52.470;13.436;2022-09-09T12:51:24;21.60;1.00
24436;DHT22;12616;52.470;13.436;2022-09-09T12:53:52;21.60;1.00
24436;DHT22;12616;52.470;13.436;2022-09-09T12:56:20;21.60;81.20
24436;DHT22;12616;52.470;13.436;2022-09-09T12:58:51;21.60;1.00
24436;DHT22;12616;52.470;13.436;2022-09-09T13:01:25;21.60;1.00
24436;DHT22;12616;52.470;13.436;2022-09-09T13:03:59;21.60;1.00
24436;DHT22;12616;52.470;13.436;2022-09-09T13:06:28;21.60;1.00
24436;DHT22;12616;52.470;13.436;2022-09-09T13:08:56;21.70;1.00
24436;DHT22;12616;52.470;13.436;2022-09-09T13:11:27;21.70;99.90
24436;DHT22;12616;52.470;13.436;2022-09-09T13:13:58;21.70;99.90
24436;DHT22;12616;52.470;13.436;2022-09-09T13:16:26;21.70;1.00
24436;DHT22;12616;52.470;13.436;2022-09-09T13:18:56;21.70;1.00
24436;DHT22;12616;52.470;13.436;2022-09-09T13:21:32;21.80;1.00
24436;DHT22;12616;52.470;13.436;2022-09-09T13:24:00;21.80;99.90
24436;DHT22;12616;52.470;13.436;2022-09-09T13:26:29;21.80;99.90
24436;DHT22;12616;52.470;13.436;2022-09-09T13:29:09;21.80;99.90
24436;DHT22;12616;52.470;13.436;2022-09-09T13:31:43;21.80;99.90
24436;DHT22;12616;52.470;13.436;2022-09-09T13:34:11;21.80;42.40
24436;DHT22;12616;52.470;13.436;2022-09-09T13:36:39;21.80;99.90
24436;DHT22;12616;52.470;13.436;2022-09-09T13:39:15;21.80;99.90
24436;DHT22;12616;52.470;13.436;2022-09-09T13:41:44;21.80;1.00
24436;DHT22;12616;52.470;13.436;2022-09-09T13:44:19;21.80;1.00
24436;DHT22;12616;52.470;13.436;2022-09-09T13:47:00;21.80;99.90
24436;DHT22;12616;52.470;13.436;2022-09-09T13:49:29;21.80;99.90
24436;DHT22;12616;52.470;13.436;2022-09-09T13:52:04;21.90;93.50
24436;DHT22;12616;52.470;13.436;2022-09-09T13:54:31;22.00;99.90
24436;DHT22;12616;52.470;13.436;2022-09-09T13:56:58;22.00;99.90
24436;DHT22;12616;52.470;13.436;2022-09-09T13:59:26;22.00;1.00
24436;DHT22;12616;52.470;13.436;2022-09-09T14:01:53;22.10;99.90
24436;DHT22;12616;52.470;13.436;2022-09-09T14:04:20;22.00;99.90
24436;DHT22;12616;52.470;13.436;2022-09-09T14:06:47;22.00;99.90
24436;DHT22;12616;52.470;13.436;2022-09-09T14:09:16;22.00;1.00
24436;DHT22;12616;52.470;13.436;2022-09-09T14:11:44;21.90;1.00
24436;DHT22;12616;52.470;13.436;2022-09-09T14:14:11;21.70;1.00
24436;DHT22;12616;52.470;13.436;2022-09-09T14:16:39;21.70;99.90
24436;DHT22;12616;52.470;13.436;2022-09-09T14:19:07;21.70;21.80
24436;DHT22;12616;52.470;13.436;2022-09-09T14:21:34;21.70;99.90
24436;DHT22;12616;52.470;13.436;2022-09-09T14:24:01;21.60;1.00
24436;DHT22;12616;52.470;13.436;2022-09-09T14:26:28;21.70;1.00
24436;DHT22;12616;52.470;13.436;2022-09-09T14:28:55;21.70;1.00
24436;DHT22;12616;52.470;13.436;2022-09-09T14:31:22;21.40;99.90
24436;DHT22;12616;52.470;13.436;2022-09-09T14:33:50;21.70;99.90
24436;DHT22;12616;52.470;13.436;2022-09-09T14:36:18;21.70;1.00
24436;DHT22;12616;52.470;13.436;2022-09-09T14:38:44;21.80;1.00
24436;DHT22;12616;52.470;13.436;2022-09-09T14:41:13;22.10;1.00
24436;DHT22;12616;52.470;13.436;2022-09-09T14:43:40;21.90;1.00
24436;DHT22;12616;52.470;13.436;2022-09-09T14:46:07;21.90;1.00
24436;DHT22;12616;52.470;13.436;2022-09-09T14:48:34;21.90;1.00
24436;DHT22;12616;52.470;13.436;2022-09-09T14:51:07;21.70;1.00
24436;DHT22;12616;52.470;13.436;2022-09-09T14:53:34;21.60;1.00
24436;DHT22;12616;52.470;13.436;2022-09-09T14:56:05;21.50;99.90
24436;DHT22;12616;52.470;13.436;2022-09-09T14:58:32;21.40;1.00
24436;DHT22;12616;52.470;13.436;2022-09-09T15:01:05;21.40;1.00
24436;DHT22;12616;52.470;13.436;2022-09-09T15:03:32;21.40;1.00
24436;DHT22;12616;52.470;13.436;2022-09-09T15:06:04;21.30;1.00
24436;DHT22;12616;52.470;13.436;2022-09-09T15:08:32;21.30;1.00
24436;DHT22;12616;52.470;13.436;2022-09-09T15:10:59;21.30;1.00
24436;DHT22;12616;52.470;13.436;2022-09-09T15:13:26;21.30;99.90
24436;DHT22;12616;52.470;13.436;2022-09-09T15:15:53;21.30;99.90
24436;DHT22;12616;52.470;13.436;2022-09-09T15:18:20;21.30;1.00
24436;DHT22;12616;52.470;13.436;2022-09-09T15:20:47;21.40;1.00
24436;DHT22;12616;52.470;13.436;2022-09-09T15:23:14;21.40;1.00
24436;DHT22;12616;52.470;13.436;2022-09-09T15:25:51;21.50;1.00
24436;DHT22;12616;52.470;13.436;2022-09-09T15:28:18;21.60;26.20
24436;DHT22;12616;52.470;13.436;2022-09-09T15:30:47;21.60;1.00
24436;DHT22;12616;52.470;13.436;2022-09-09T15:33:14;21.70;1.00
24436;DHT22;12616;52.470;13.436;2022-09-09T15:35:41;21.70;1.00
24436;DHT22;12616;52.470;13.436;2022-09-09T15:38:07;21.70;99.90
24436;DHT22;12616;52.470;13.436;2022-09-09T15:40:34;21.70;99.90
24436;DHT22;12616;52.470;13.436;2022-09-09T15:43:02;21.60;1.00
24436;DHT22;12616;52.470;13.436;2022-09-09T15:45:31;21.90;1.00
24436;DHT22;12616;52.470;13.436;2022-09-09T15:47:59;21.50;99.90
24436;DHT22;12616;52.470;13.436;2022-09-09T15:50:25;21.50;99.90
24436;DHT22;12616;52.470;13.436;2022-09-09T15:52:52;21.60;21.10
24436;DHT22;12616;52.470;13.436;2022-09-09T15:55:19;21.60;1.00